createdAt,value
2019-01-14T00:00:20.901Z,14.67
2019-01-14T00:02:49.271Z,12.63
2019-01-14T00:05:17.655Z,15.93
2019-01-14T00:07:46.023Z,11.23
2019-01-14T00:10:15.196Z,15.80
2019-01-14T00:12:43.571Z,15.63
2019-01-14T00:15:12.258Z,18.83
2019-01-14T00:17:40.863Z,21.27
2019-01-14T00:20:12.143Z,15.77
2019-01-14T00:22:40.516Z,24.03
2019-01-14T00:25:09.154Z,13.73
2019-01-14T00:27:37.519Z,19.30
2019-01-14T00:30:09.024Z,16.47
2019-01-14T00:32:37.389Z,22.60
2019-01-14T00:35:07.347Z,20.57
2019-01-14T00:37:35.727Z,23.83
2019-01-14T00:40:06.273Z,17.33
2019-01-14T00:42:34.809Z,15.90
2019-01-14T00:45:03.433Z,21.80
2019-01-14T00:47:31.825Z,17.43
2019-01-14T00:50:00.207Z,14.97
2019-01-14T00:52:28.855Z,15.07
2019-01-14T00:54:57.222Z,22.33
2019-01-14T00:57:25.616Z,13.93
2019-01-14T00:59:54.075Z,15.83
2019-01-14T01:02:22.436Z,21.87
2019-01-14T01:04:50.810Z,17.73
2019-01-14T01:07:19.186Z,15.43
2019-01-14T01:09:47.559Z,16.80
2019-01-14T01:12:15.946Z,21.83
2019-01-14T01:14:44.321Z,18.83
2019-01-14T01:17:12.703Z,17.17
2019-01-14T01:19:41.082Z,17.73
2019-01-14T01:22:09.457Z,18.03
2019-01-14T01:24:37.837Z,14.33
2019-01-14T01:27:06.205Z,6.60
2019-01-14T01:29:34.819Z,2.70
2019-01-14T01:32:03.204Z,1.40
2019-01-14T01:34:31.566Z,2.37
2019-01-14T01:36:59.936Z,2.50
2019-01-14T01:39:28.316Z,2.23
2019-01-14T01:41:56.729Z,4.87
2019-01-14T01:44:25.068Z,7.13
2019-01-14T01:46:53.430Z,5.53
2019-01-14T01:49:21.810Z,6.37
2019-01-14T01:51:50.191Z,11.07
2019-01-14T01:54:18.568Z,14.73
2019-01-14T01:56:46.945Z,12.80
2019-01-14T01:59:15.352Z,17.50
2019-01-14T02:01:43.725Z,14.93
2019-01-14T02:04:12.098Z,13.90
2019-01-14T02:06:40.479Z,16.77
2019-01-14T02:09:08.961Z,19.00
2019-01-14T02:11:37.391Z,15.43
2019-01-14T02:14:05.834Z,25.97
2019-01-14T02:16:34.595Z,16.83
2019-01-14T02:19:03.048Z,22.47
2019-01-14T02:21:31.437Z,22.47
2019-01-14T02:23:59.809Z,17.30
2019-01-14T02:26:28.209Z,21.70
2019-01-14T02:28:56.580Z,17.20
2019-01-14T02:31:24.967Z,21.90
2019-01-14T02:33:53.421Z,16.93
2019-01-14T02:36:21.805Z,21.40
2019-01-14T02:38:50.169Z,21.00
2019-01-14T02:41:18.555Z,21.27
2019-01-14T02:43:46.932Z,17.60
2019-01-14T02:46:15.310Z,22.53
2019-01-14T02:48:43.687Z,18.40
2019-01-14T02:51:12.074Z,18.63
2019-01-14T02:53:40.702Z,17.20
2019-01-14T02:56:09.087Z,21.37
2019-01-14T02:58:37.471Z,16.67
2019-01-14T03:01:05.849Z,16.27
2019-01-14T03:03:34.233Z,17.60
2019-01-14T03:06:02.617Z,19.77
2019-01-14T03:08:31.004Z,18.70
2019-01-14T03:10:59.366Z,17.43
2019-01-14T03:13:27.749Z,14.33
2019-01-14T03:15:56.135Z,14.53
2019-01-14T03:18:24.532Z,14.97
2019-01-14T03:20:52.922Z,15.63
2019-01-14T03:23:21.309Z,13.80
2019-01-14T03:25:58.097Z,10.70
2019-01-14T03:28:20.044Z,16.73
2019-01-14T03:30:48.411Z,17.30
2019-01-14T03:33:16.805Z,18.23
2019-01-14T03:35:45.167Z,21.77
2019-01-14T03:38:13.542Z,18.67
2019-01-14T03:40:41.926Z,16.00
2019-01-14T03:43:10.319Z,25.47
2019-01-14T03:45:40.910Z,19.83
2019-01-14T03:48:09.364Z,17.73
2019-01-14T03:50:37.761Z,21.20
2019-01-14T03:53:06.137Z,19.47
2019-01-14T03:55:34.519Z,18.07
2019-01-14T03:58:02.967Z,20.47
2019-01-14T04:00:31.368Z,25.20
2019-01-14T04:02:59.981Z,21.47
2019-01-14T04:05:28.367Z,23.37
2019-01-14T04:07:56.744Z,25.83
2019-01-14T04:10:27.295Z,21.23
2019-01-14T04:12:55.667Z,23.07
2019-01-14T04:15:24.124Z,18.47
2019-01-14T04:17:54.771Z,17.83
2019-01-14T04:20:23.151Z,14.00
2019-01-14T04:22:51.529Z,21.57
2019-01-14T04:25:19.902Z,21.40
2019-01-14T04:27:48.354Z,16.37
2019-01-14T04:30:22.279Z,15.57
2019-01-14T04:32:50.883Z,15.97
2019-01-14T04:35:20.026Z,19.67
2019-01-14T04:37:48.579Z,19.90
2019-01-14T04:40:17.058Z,17.03
2019-01-14T04:42:45.485Z,11.87
2019-01-14T04:45:16.444Z,12.53
2019-01-14T04:47:44.958Z,13.30
2019-01-14T04:50:16.047Z,13.10
2019-01-14T04:52:44.437Z,13.60
2019-01-14T04:55:13.081Z,8.77
2019-01-14T04:57:41.453Z,6.50
2019-01-14T05:00:15.773Z,6.73
2019-01-14T05:02:44.140Z,13.83
2019-01-14T05:05:12.901Z,9.37
2019-01-14T05:07:41.274Z,11.10
2019-01-14T05:10:15.151Z,7.87
2019-01-14T05:12:43.533Z,12.73
2019-01-14T05:15:12.651Z,9.73
2019-01-14T05:17:41.012Z,6.30
2019-01-14T05:20:25.935Z,10.00
2019-01-14T05:22:55.237Z,5.47
2019-01-14T05:25:23.685Z,7.70
2019-01-14T05:27:52.114Z,8.77
2019-01-14T05:30:20.953Z,10.97
2019-01-14T05:32:49.427Z,6.03
2019-01-14T05:35:17.932Z,8.07
2019-01-14T05:37:46.477Z,10.13
2019-01-14T05:40:17.097Z,12.73
2019-01-14T05:42:45.479Z,7.23
2019-01-14T05:45:13.936Z,10.30
2019-01-14T05:47:42.309Z,8.87
2019-01-14T05:50:15.206Z,7.87
2019-01-14T05:52:44.031Z,6.50
2019-01-14T05:55:13.845Z,5.60
2019-01-14T05:57:42.313Z,7.90
2019-01-14T06:00:19.384Z,2.40
2019-01-14T06:02:47.903Z,4.70
2019-01-14T06:05:16.281Z,3.90
2019-01-14T06:07:45.157Z,6.50
2019-01-14T06:10:13.608Z,3.90
2019-01-14T06:12:41.991Z,4.93
2019-01-14T06:15:15.671Z,8.47
2019-01-14T06:17:44.049Z,8.00
2019-01-14T06:20:15.341Z,8.33
2019-01-14T06:22:43.719Z,7.73
2019-01-14T06:25:14.133Z,9.07
2019-01-14T06:27:42.517Z,10.23
2019-01-14T06:30:16.609Z,7.77
2019-01-14T06:32:44.999Z,13.70
2019-01-14T06:35:13.517Z,10.73
2019-01-14T06:37:41.888Z,8.57
2019-01-14T06:40:16.161Z,11.90
2019-01-14T06:42:44.619Z,7.13
2019-01-14T06:45:13.714Z,6.20
2019-01-14T06:47:42.168Z,7.93
2019-01-14T06:50:13.365Z,9.13
2019-01-14T06:52:41.749Z,13.13
2019-01-14T06:55:10.585Z,10.50
2019-01-14T06:57:38.951Z,10.97
2019-01-14T07:00:10.763Z,11.07
2019-01-14T07:02:39.135Z,9.23
2019-01-14T07:05:10.328Z,13.57
2019-01-14T07:07:38.692Z,12.23
2019-01-14T07:10:10.130Z,12.70
2019-01-14T07:12:38.493Z,8.00
2019-01-14T07:15:08.939Z,8.37
2019-01-14T07:17:38.208Z,8.23
2019-01-14T07:20:10.170Z,12.33
2019-01-14T07:22:38.562Z,10.93
2019-01-14T07:25:09.486Z,9.03
2019-01-14T07:27:37.859Z,13.30
2019-01-14T07:30:09.680Z,11.53
2019-01-14T07:32:39.040Z,8.10
2019-01-14T07:35:07.677Z,7.40
2019-01-14T07:37:36.052Z,9.27
2019-01-14T07:40:07.479Z,8.00
2019-01-14T07:42:35.921Z,9.77
2019-01-14T07:45:05.335Z,10.93
2019-01-14T07:47:33.716Z,11.60
2019-01-14T07:50:02.092Z,13.23
2019-01-14T07:52:30.476Z,14.63
2019-01-14T07:54:58.861Z,7.47
2019-01-14T07:57:27.250Z,9.43
2019-01-14T07:59:55.616Z,12.43
2019-01-14T08:02:24.005Z,10.63
2019-01-14T08:04:52.378Z,9.83
2019-01-14T08:07:21.679Z,9.00
2019-01-14T08:09:50.057Z,8.67
2019-01-14T08:12:19.359Z,10.87
2019-01-14T08:14:48.650Z,12.40
2019-01-14T08:17:17.021Z,11.70
2019-01-14T08:19:45.451Z,11.87
2019-01-14T08:22:14.808Z,12.33
2019-01-14T08:24:43.206Z,11.80
2019-01-14T08:27:12.512Z,8.23
2019-01-14T08:29:40.871Z,9.40
2019-01-14T08:32:09.255Z,13.50
2019-01-14T08:34:37.630Z,13.27
2019-01-14T08:37:06.014Z,12.37
2019-01-14T08:39:34.404Z,14.93
2019-01-14T08:42:03.056Z,9.13
2019-01-14T08:44:33.081Z,8.43
2019-01-14T08:47:01.454Z,9.83
2019-01-14T08:49:29.846Z,9.30
2019-01-14T08:51:58.478Z,6.00
2019-01-14T08:54:26.882Z,4.20
2019-01-14T08:56:55.286Z,8.50
2019-01-14T08:59:25.638Z,8.30
2019-01-14T09:01:54.036Z,6.37
2019-01-14T09:04:24.495Z,8.43
2019-01-14T09:06:53.048Z,7.37
2019-01-14T09:09:21.449Z,6.07
2019-01-14T09:11:49.830Z,4.43
2019-01-14T09:14:18.215Z,5.70
2019-01-14T09:16:46.603Z,5.13
2019-01-14T09:19:15.045Z,8.10
2019-01-14T09:21:43.435Z,3.30
2019-01-14T09:24:12.785Z,5.70
2019-01-14T09:26:41.172Z,5.93
2019-01-14T09:29:10.480Z,4.70
2019-01-14T09:31:39.024Z,3.70
2019-01-14T09:34:07.876Z,2.60
2019-01-14T09:36:36.483Z,3.77
2019-01-14T09:39:07.744Z,2.77
2019-01-14T09:41:36.116Z,2.50
2019-01-14T09:44:04.726Z,4.40
2019-01-14T09:46:33.102Z,1.63
2019-01-14T09:49:01.483Z,2.10
2019-01-14T09:51:29.866Z,2.60
2019-01-14T09:53:58.232Z,3.03
2019-01-14T09:56:26.601Z,3.03
2019-01-14T09:58:55.040Z,1.93
2019-01-14T10:01:23.418Z,3.30
2019-01-14T10:03:51.782Z,6.33
2019-01-14T10:06:20.162Z,7.17
2019-01-14T10:08:48.529Z,6.30
2019-01-14T10:11:16.982Z,3.87
2019-01-14T10:13:45.444Z,4.30
2019-01-14T10:16:13.817Z,6.83
2019-01-14T10:18:42.188Z,4.73
2019-01-14T10:21:10.568Z,5.83
2019-01-14T10:23:38.934Z,5.47
2019-01-14T10:26:08.932Z,5.97
2019-01-14T10:28:37.295Z,6.07
2019-01-14T10:31:05.746Z,7.90
2019-01-14T10:33:34.108Z,5.53
2019-01-14T10:36:02.506Z,5.57
2019-01-14T10:38:30.880Z,9.93
2019-01-14T10:40:59.250Z,10.00
2019-01-14T10:43:27.629Z,7.73
2019-01-14T10:45:56.282Z,7.70
2019-01-14T10:48:24.612Z,6.97
2019-01-14T10:50:53.034Z,9.30
2019-01-14T10:53:21.402Z,8.13
2019-01-14T10:55:50.008Z,7.83
2019-01-14T10:58:18.388Z,8.10
2019-01-14T11:00:46.764Z,11.87
2019-01-14T11:03:15.211Z,9.87
2019-01-14T11:05:43.659Z,11.20
2019-01-14T11:08:12.030Z,10.33
2019-01-14T11:10:40.401Z,7.40
2019-01-14T11:13:12.856Z,9.00
2019-01-14T11:15:41.228Z,12.90
2019-01-14T11:18:09.603Z,9.73
2019-01-14T11:20:37.975Z,13.80
2019-01-14T11:23:06.357Z,10.23
2019-01-14T11:25:34.749Z,10.67
2019-01-14T11:28:04.841Z,13.00
2019-01-14T11:30:33.561Z,12.97
2019-01-14T11:33:01.923Z,9.07
2019-01-14T11:35:30.371Z,9.57
2019-01-14T11:37:59.030Z,14.37
2019-01-14T11:40:31.912Z,7.80
2019-01-14T11:43:00.228Z,15.93
2019-01-14T11:45:28.611Z,9.77
2019-01-14T11:47:56.987Z,14.07
2019-01-14T11:50:25.358Z,8.93
2019-01-14T11:52:53.728Z,8.70
2019-01-14T11:55:22.108Z,11.80
2019-01-14T11:57:50.550Z,11.10
2019-01-14T12:00:25.482Z,13.87
2019-01-14T12:02:55.909Z,7.03
2019-01-14T12:05:24.438Z,4.93
2019-01-14T12:07:52.857Z,6.83
2019-01-14T12:10:21.217Z,4.57
2019-01-14T12:12:49.597Z,6.93
2019-01-14T12:15:20.855Z,2.93
2019-01-14T12:17:49.249Z,3.97
2019-01-14T12:20:17.683Z,6.17
2019-01-14T12:22:46.204Z,6.17
2019-01-14T12:25:14.674Z,7.07
2019-01-14T12:27:44.118Z,3.63
2019-01-14T12:30:19.938Z,9.47
2019-01-14T12:32:48.439Z,5.40
2019-01-14T12:35:16.837Z,8.30
2019-01-14T12:37:45.189Z,6.53
2019-01-14T12:40:14.290Z,8.97
2019-01-14T12:42:42.731Z,5.07
2019-01-14T12:45:16.793Z,4.63
2019-01-14T12:47:45.160Z,8.93
2019-01-14T12:50:19.448Z,6.77
2019-01-14T12:52:48.679Z,7.67
2019-01-14T12:55:18.905Z,4.90
2019-01-14T12:57:47.412Z,9.17
2019-01-14T13:00:29.538Z,4.23
2019-01-14T13:02:58.768Z,9.07
2019-01-14T13:05:28.056Z,8.73
2019-01-14T13:07:56.428Z,7.37
2019-01-14T13:10:24.804Z,10.23
2019-01-14T13:12:53.188Z,9.00
2019-01-14T13:15:23.387Z,6.57
2019-01-14T13:17:51.761Z,7.93
2019-01-14T13:20:21.379Z,13.10
2019-01-14T13:22:49.927Z,13.40
2019-01-14T13:25:18.547Z,9.20
2019-01-14T13:27:46.938Z,9.53
2019-01-14T13:30:26.393Z,7.97
2019-01-14T13:32:55.718Z,9.93
2019-01-14T13:35:24.219Z,7.80
2019-01-14T13:37:52.727Z,8.60
2019-01-14T13:40:21.076Z,7.90
2019-01-14T13:42:49.535Z,11.57
2019-01-14T13:45:19.949Z,7.17
2019-01-14T13:47:48.554Z,9.70
2019-01-14T13:50:19.507Z,9.93
2019-01-14T13:52:48.005Z,9.73
2019-01-14T13:55:17.661Z,9.50
2019-01-14T13:57:48.300Z,13.80
2019-01-14T14:00:22.668Z,11.17
2019-01-14T14:02:51.338Z,9.80
2019-01-14T14:05:20.022Z,8.37
2019-01-14T14:07:48.680Z,13.03
2019-01-14T14:10:29.709Z,6.40
2019-01-14T14:12:58.290Z,6.13
2019-01-14T14:15:26.819Z,12.50
2019-01-14T14:17:56.613Z,8.37
2019-01-14T14:20:26.157Z,5.13
2019-01-14T14:22:54.525Z,2.43
2019-01-14T14:25:24.907Z,4.00
2019-01-14T14:27:53.299Z,3.83
2019-01-14T14:30:27.723Z,3.97
2019-01-14T14:32:56.102Z,5.43
2019-01-14T14:35:24.545Z,3.03
2019-01-14T14:37:52.942Z,6.00
2019-01-14T14:40:21.390Z,3.70
2019-01-14T14:42:49.763Z,5.83
2019-01-14T14:45:18.267Z,3.90
2019-01-14T14:47:46.647Z,7.17
2019-01-14T14:50:19.560Z,3.97
2019-01-14T14:52:48.172Z,8.73
2019-01-14T14:55:16.541Z,7.13
2019-01-14T14:57:45.017Z,4.17
2019-01-14T15:00:22.207Z,5.10
2019-01-14T15:02:50.645Z,6.93
2019-01-14T15:05:19.466Z,5.60
2019-01-14T15:07:47.936Z,3.20
2019-01-14T15:10:20.766Z,4.17
2019-01-14T15:12:49.216Z,5.77
2019-01-14T15:15:20.250Z,7.03
2019-01-14T15:17:48.635Z,9.93
2019-01-14T15:20:19.382Z,5.60
2019-01-14T15:22:48.711Z,5.60
2019-01-14T15:25:17.090Z,9.47
2019-01-14T15:27:45.458Z,6.43
2019-01-14T15:30:19.541Z,8.80
2019-01-14T15:32:47.913Z,5.80
2019-01-14T15:35:17.288Z,11.83
2019-01-14T15:37:45.657Z,4.30
2019-01-14T15:40:16.477Z,5.57
2019-01-14T15:42:44.925Z,4.43
2019-01-14T15:45:17.383Z,4.67
2019-01-14T15:47:45.747Z,9.83
2019-01-14T15:50:14.322Z,5.10
2019-01-14T15:52:42.689Z,5.70
2019-01-14T15:55:16.728Z,9.57
2019-01-14T15:57:51.584Z,8.90
2019-01-14T16:00:21.065Z,6.20
2019-01-14T16:02:56.273Z,10.77
2019-01-14T16:05:26.644Z,9.73
2019-01-14T16:07:55.011Z,9.10
2019-01-14T16:10:31.201Z,12.63
2019-01-14T16:12:59.562Z,15.77
2019-01-14T16:15:30.949Z,8.03
2019-01-14T16:18:00.299Z,8.53
2019-01-14T16:20:30.685Z,5.70
2019-01-14T16:23:00.057Z,5.47
2019-01-14T16:25:28.423Z,6.47
2019-01-14T16:27:56.799Z,8.10
2019-01-14T16:30:25.245Z,6.77
2019-01-14T16:32:53.932Z,8.07
2019-01-14T16:35:22.311Z,5.20
2019-01-14T16:37:50.682Z,6.73
2019-01-14T16:40:19.198Z,8.40
2019-01-14T16:42:47.576Z,6.57
2019-01-14T16:45:18.685Z,13.03
2019-01-14T16:47:47.127Z,9.27
2019-01-14T16:50:17.222Z,9.60
2019-01-14T16:52:45.601Z,7.50
2019-01-14T16:55:15.737Z,7.83
2019-01-14T16:57:44.109Z,5.23
2019-01-14T17:00:17.259Z,9.57
2019-01-14T17:02:45.908Z,7.77
2019-01-14T17:05:15.515Z,8.27
2019-01-14T17:07:43.956Z,9.97
2019-01-14T17:10:14.472Z,7.57
2019-01-14T17:12:42.916Z,7.27
2019-01-14T17:15:13.702Z,6.10
2019-01-14T17:17:42.146Z,7.80
2019-01-14T17:20:16.238Z,8.87
2019-01-14T17:22:44.612Z,10.83
2019-01-14T17:25:13.535Z,7.77
2019-01-14T17:27:41.912Z,7.70
2019-01-14T17:30:13.287Z,4.87
2019-01-14T17:32:41.649Z,9.03
2019-01-14T17:35:10.167Z,9.23
2019-01-14T17:37:38.533Z,14.27
2019-01-14T17:40:09.930Z,11.57
2019-01-14T17:42:38.299Z,8.40
2019-01-14T17:45:09.029Z,10.53
2019-01-14T17:47:37.481Z,7.17
2019-01-14T17:50:10.933Z,14.47
2019-01-14T17:52:40.267Z,10.03
2019-01-14T17:55:09.937Z,13.07
2019-01-14T17:57:39.293Z,11.17
2019-01-14T18:00:22.066Z,10.50
2019-01-14T18:02:51.465Z,11.73
2019-01-14T18:05:20.885Z,9.53
2019-01-14T18:07:50.208Z,11.17
2019-01-14T18:10:19.721Z,11.80
2019-01-14T18:12:48.525Z,9.50
2019-01-14T18:15:16.901Z,10.37
2019-01-14T18:17:45.289Z,12.27
2019-01-14T18:20:18.105Z,9.40
2019-01-14T18:22:46.487Z,10.73
2019-01-14T18:25:15.799Z,8.60
2019-01-14T18:27:44.261Z,9.50
2019-01-14T18:30:18.605Z,9.67
2019-01-14T18:32:47.248Z,11.97
2019-01-14T18:35:17.056Z,6.40
2019-01-14T18:37:45.677Z,12.57
2019-01-14T18:40:16.167Z,7.30
2019-01-14T18:42:44.656Z,9.33
2019-01-14T18:45:15.059Z,9.97
2019-01-14T18:47:43.518Z,7.97
2019-01-14T18:50:17.932Z,8.23
2019-01-14T18:52:46.640Z,7.73
2019-01-14T18:55:15.087Z,10.63
2019-01-14T18:57:43.558Z,6.47
2019-01-14T19:00:15.263Z,8.40
2019-01-14T19:02:44.706Z,6.00
2019-01-14T19:05:13.154Z,4.70
2019-01-14T19:07:44.842Z,8.93
2019-01-14T19:10:13.949Z,9.00
2019-01-14T19:12:42.339Z,7.67
2019-01-14T19:15:13.724Z,7.13
2019-01-14T19:17:42.093Z,7.30
2019-01-14T19:20:19.736Z,8.67
2019-01-14T19:22:48.106Z,10.00
2019-01-14T19:25:16.508Z,7.77
2019-01-14T19:27:45.782Z,6.77
2019-01-14T19:30:21.588Z,11.30
2019-01-14T19:32:49.956Z,7.87
2019-01-14T19:35:18.474Z,8.20
2019-01-14T19:37:46.838Z,7.70
2019-01-14T19:40:17.545Z,7.87
2019-01-14T19:42:46.022Z,8.87
2019-01-14T19:45:17.096Z,10.87
2019-01-14T19:47:45.555Z,9.17
2019-01-14T19:50:18.803Z,7.13
2019-01-14T19:52:47.189Z,7.73
2019-01-14T19:55:15.625Z,8.73
2019-01-14T19:57:44.083Z,10.07
2019-01-14T20:00:15.705Z,11.27
2019-01-14T20:02:44.214Z,8.27
2019-01-14T20:05:12.650Z,9.83
2019-01-14T20:07:41.033Z,10.03
2019-01-14T20:10:12.740Z,5.97
2019-01-14T20:12:42.890Z,10.87
2019-01-14T20:15:14.350Z,5.60
2019-01-14T20:17:42.743Z,4.70
2019-01-14T20:20:11.460Z,7.60
2019-01-14T20:22:39.884Z,8.50
2019-01-14T20:25:11.238Z,7.93
2019-01-14T20:27:39.768Z,7.97
2019-01-14T20:30:21.405Z,10.53
2019-01-14T20:32:49.854Z,11.50
2019-01-14T20:35:18.294Z,6.43
2019-01-14T20:37:46.663Z,11.43
2019-01-14T20:40:16.174Z,9.50
2019-01-14T20:42:44.609Z,10.13
2019-01-14T20:45:17.216Z,11.47
2019-01-14T20:47:46.480Z,6.20
2019-01-14T20:50:17.828Z,5.07
2019-01-14T20:52:46.264Z,6.73
2019-01-14T20:55:14.779Z,6.63
2019-01-14T20:57:43.338Z,8.37
2019-01-14T21:00:15.518Z,8.67
2019-01-14T21:02:43.886Z,7.87
2019-01-14T21:05:12.412Z,14.30
2019-01-14T21:07:40.781Z,6.10
2019-01-14T21:10:12.122Z,9.63
2019-01-14T21:12:40.496Z,8.47
2019-01-14T21:15:11.135Z,6.63
2019-01-14T21:17:39.595Z,7.33
2019-01-14T21:20:16.864Z,10.17
2019-01-14T21:22:46.676Z,6.63
2019-01-14T21:25:15.183Z,10.73
2019-01-14T21:27:43.563Z,12.67
2019-01-14T21:30:19.844Z,12.57
2019-01-14T21:32:48.312Z,9.63
2019-01-14T21:35:16.758Z,8.67
2019-01-14T21:37:45.129Z,9.13
2019-01-14T21:40:14.490Z,8.13
2019-01-14T21:42:42.848Z,8.13
2019-01-14T21:45:12.963Z,8.13
2019-01-14T21:47:41.410Z,11.93
2019-01-14T21:50:15.050Z,11.20
2019-01-14T21:52:44.644Z,7.33
2019-01-14T21:55:17.943Z,6.30
2019-01-14T21:57:46.573Z,9.40
2019-01-14T22:00:21.973Z,8.10
2019-01-14T22:02:50.430Z,8.27
2019-01-14T22:05:18.965Z,9.63
2019-01-14T22:07:51.363Z,7.10
2019-01-14T22:10:22.413Z,7.57
2019-01-14T22:12:50.796Z,14.57
2019-01-14T22:15:19.169Z,7.90
2019-01-14T22:17:47.533Z,10.37
2019-01-14T22:20:21.648Z,6.97
2019-01-14T22:22:50.188Z,9.53
2019-01-14T22:25:18.566Z,8.40
2019-01-14T22:27:47.000Z,7.30
2019-01-14T22:30:21.091Z,7.77
2019-01-14T22:32:49.460Z,11.03
2019-01-14T22:35:17.835Z,13.67
2019-01-14T22:37:46.214Z,12.73
2019-01-14T22:40:15.234Z,10.73
2019-01-14T22:42:43.608Z,9.07
2019-01-14T22:45:13.259Z,9.10
2019-01-14T22:47:41.633Z,11.20
2019-01-14T22:50:18.199Z,12.33
2019-01-14T22:52:46.640Z,11.87
2019-01-14T22:55:15.086Z,10.00
2019-01-14T22:57:44.497Z,10.07
2019-01-14T23:00:45.129Z,11.93
2019-01-14T23:03:14.471Z,9.37
2019-01-14T23:05:42.861Z,11.63
2019-01-14T23:08:11.228Z,12.10
2019-01-14T23:10:39.663Z,11.87
2019-01-14T23:13:08.056Z,11.63
2019-01-14T23:15:36.431Z,12.37
2019-01-14T23:18:05.280Z,13.67
2019-01-14T23:20:33.659Z,19.57
2019-01-14T23:23:02.045Z,8.27
2019-01-14T23:25:30.422Z,10.87
2019-01-14T23:27:58.797Z,12.80
2019-01-14T23:30:27.170Z,10.27
2019-01-14T23:32:55.553Z,12.37
2019-01-14T23:35:23.926Z,13.63
2019-01-14T23:37:52.307Z,8.77
2019-01-14T23:40:20.751Z,11.37
2019-01-14T23:42:49.112Z,11.67
2019-01-14T23:45:17.570Z,12.10
2019-01-14T23:47:45.945Z,9.67
2019-01-14T23:50:14.398Z,13.23
2019-01-14T23:52:42.763Z,18.07
2019-01-14T23:55:11.209Z,13.73
2019-01-14T23:57:39.570Z,8.37
